createdAt,value
2018-03-20T00:00:43.613Z,1.44
2018-03-20T00:03:11.697Z,1.25
2018-03-20T00:05:39.159Z,1.49
2018-03-20T00:08:06.621Z,1.28
2018-03-20T00:10:34.998Z,1.43
2018-03-20T00:13:02.466Z,1.43
2018-03-20T00:15:29.926Z,1.61
2018-03-20T00:17:57.693Z,1.56
2018-03-20T00:20:25.162Z,1.69
2018-03-20T00:22:52.641Z,1.56
2018-03-20T00:25:20.368Z,1.76
2018-03-20T00:27:47.834Z,1.64
2018-03-20T00:30:15.299Z,1.07
2018-03-20T00:32:42.899Z,1.44
2018-03-20T00:35:10.365Z,1.66
2018-03-20T00:37:37.841Z,1.49
2018-03-20T00:40:05.750Z,1.08
2018-03-20T00:42:33.216Z,1.35
2018-03-20T00:45:00.673Z,1.58
2018-03-20T00:47:28.442Z,1.86
2018-03-20T00:49:55.905Z,1.56
2018-03-20T00:52:23.374Z,1.75
2018-03-20T00:54:52.048Z,1.38
2018-03-20T00:57:19.511Z,1.59
2018-03-20T00:59:46.978Z,1.65
2018-03-20T01:02:14.743Z,1.73
2018-03-20T01:04:42.193Z,1.62
2018-03-20T01:07:09.656Z,1.42
2018-03-20T01:09:37.417Z,1.63
2018-03-20T01:12:07.721Z,1.50
2018-03-20T01:14:35.186Z,1.63
2018-03-20T01:17:02.903Z,1.91
2018-03-20T01:19:30.360Z,1.62
2018-03-20T01:21:57.825Z,1.60
2018-03-20T01:24:25.610Z,1.88
2018-03-20T01:26:53.039Z,1.54
2018-03-20T01:29:20.484Z,1.39
2018-03-20T01:31:48.249Z,1.38
2018-03-20T01:34:15.711Z,1.10
2018-03-20T01:36:43.214Z,1.43
2018-03-20T01:39:10.942Z,1.26
2018-03-20T01:41:38.398Z,0.97
2018-03-20T01:44:05.873Z,1.40
2018-03-20T01:46:34.238Z,1.81
2018-03-20T01:49:01.701Z,1.61
2018-03-20T01:51:29.162Z,2.08
2018-03-20T01:53:57.531Z,1.49
2018-03-20T01:56:24.990Z,1.65
2018-03-20T01:58:52.464Z,1.56
2018-03-20T02:01:20.232Z,1.48
2018-03-20T02:03:47.685Z,1.38
2018-03-20T02:06:15.152Z,1.51
2018-03-20T02:08:42.920Z,1.68
2018-03-20T02:11:10.377Z,1.85
2018-03-20T02:13:38.514Z,1.53
2018-03-20T02:16:06.520Z,1.50
2018-03-20T02:18:33.987Z,1.71
2018-03-20T02:21:01.450Z,1.83
2018-03-20T02:23:29.209Z,1.99
2018-03-20T02:25:56.678Z,1.52
2018-03-20T02:28:24.196Z,1.96
2018-03-20T02:30:52.052Z,1.89
2018-03-20T02:33:19.509Z,1.63
2018-03-20T02:35:46.994Z,1.71
2018-03-20T02:38:14.713Z,1.81
2018-03-20T02:40:42.169Z,1.72
2018-03-20T02:43:09.625Z,1.80
2018-03-20T02:45:37.404Z,1.71
2018-03-20T02:48:04.892Z,1.57
2018-03-20T02:50:32.370Z,1.41
2018-03-20T02:53:00.574Z,1.70
2018-03-20T02:55:28.035Z,1.84
2018-03-20T02:57:55.534Z,1.84
2018-03-20T03:00:23.237Z,2.04
2018-03-20T03:02:50.694Z,1.90
2018-03-20T03:05:18.205Z,1.78
2018-03-20T03:07:45.889Z,1.72
2018-03-20T03:10:13.346Z,1.82
2018-03-20T03:12:40.806Z,2.43
2018-03-20T03:15:08.589Z,1.85
2018-03-20T03:17:36.046Z,1.90
2018-03-20T03:20:03.513Z,1.79
2018-03-20T03:22:31.466Z,1.62
2018-03-20T03:24:58.924Z,1.56
2018-03-20T03:27:26.385Z,1.43
2018-03-20T03:29:54.326Z,1.48
2018-03-20T03:32:21.790Z,1.95
2018-03-20T03:34:49.254Z,1.83
2018-03-20T03:37:17.003Z,1.78
2018-03-20T03:39:44.470Z,1.93
2018-03-20T03:42:11.925Z,1.64
2018-03-20T03:44:40.620Z,1.56
2018-03-20T03:47:08.095Z,1.99
2018-03-20T03:49:35.556Z,1.52
2018-03-20T03:52:03.308Z,2.74
2018-03-20T03:54:30.775Z,2.19
2018-03-20T03:56:58.247Z,2.41
2018-03-20T03:59:25.981Z,1.92
2018-03-20T04:01:53.448Z,1.93
2018-03-20T04:04:20.923Z,2.18
2018-03-20T04:06:48.985Z,2.25
2018-03-20T04:09:16.459Z,2.17
2018-03-20T04:11:43.918Z,1.71
2018-03-20T04:14:11.640Z,1.57
2018-03-20T04:16:40.402Z,1.60
2018-03-20T04:19:07.873Z,1.92
2018-03-20T04:21:35.589Z,1.64
2018-03-20T04:24:03.044Z,1.69
2018-03-20T04:26:30.505Z,1.50
2018-03-20T04:28:58.177Z,2.16
2018-03-20T04:31:25.629Z,1.95
2018-03-20T04:33:53.094Z,2.22
2018-03-20T04:36:20.954Z,1.87
2018-03-20T04:38:48.417Z,2.18
2018-03-20T04:41:15.877Z,1.64
2018-03-20T04:43:43.639Z,1.77
2018-03-20T04:46:11.130Z,1.86
2018-03-20T04:48:39.073Z,1.99
2018-03-20T04:51:07.064Z,1.49
2018-03-20T04:53:34.522Z,1.68
2018-03-20T04:56:01.997Z,1.19
2018-03-20T04:58:30.256Z,1.68
2018-03-20T05:00:57.730Z,1.83
2018-03-20T05:03:25.203Z,1.71
2018-03-20T05:05:52.946Z,1.65
2018-03-20T05:08:20.401Z,1.69
2018-03-20T05:10:47.875Z,1.40
2018-03-20T05:13:15.931Z,1.52
2018-03-20T05:15:43.388Z,1.56
2018-03-20T05:18:11.521Z,1.50
2018-03-20T05:20:49.037Z,1.60
2018-03-20T05:23:21.996Z,1.45
2018-03-20T05:25:49.461Z,1.81
2018-03-20T05:28:17.143Z,1.57
2018-03-20T05:30:44.617Z,1.78
2018-03-20T05:33:12.080Z,1.88
2018-03-20T05:35:39.974Z,1.95
2018-03-20T05:38:07.430Z,1.73
2018-03-20T05:40:34.901Z,1.86
2018-03-20T05:43:02.964Z,2.28
2018-03-20T05:45:30.429Z,2.04
2018-03-20T05:48:03.392Z,2.32
2018-03-20T05:50:37.011Z,2.17
2018-03-20T05:53:04.476Z,2.30
2018-03-20T05:55:31.932Z,2.46
2018-03-20T05:57:59.624Z,2.65
2018-03-20T06:00:27.121Z,2.44
2018-03-20T06:02:54.586Z,2.49
2018-03-20T06:05:22.338Z,2.49
2018-03-20T06:07:49.794Z,2.47
2018-03-20T06:10:17.249Z,2.58
2018-03-20T06:12:45.066Z,2.08
2018-03-20T06:15:12.530Z,2.48
2018-03-20T06:17:39.984Z,2.16
2018-03-20T06:20:08.624Z,2.34
2018-03-20T06:22:36.097Z,2.50
2018-03-20T06:25:03.636Z,2.91
2018-03-20T06:27:31.378Z,2.09
2018-03-20T06:29:58.837Z,1.82
2018-03-20T06:32:26.366Z,2.25
2018-03-20T06:34:53.955Z,2.28
2018-03-20T06:37:21.421Z,1.98
2018-03-20T06:39:48.886Z,2.32
2018-03-20T06:42:16.737Z,2.15
2018-03-20T06:44:44.197Z,2.84
2018-03-20T06:47:11.657Z,2.88
2018-03-20T06:49:39.440Z,2.30
2018-03-20T06:52:06.918Z,2.81
2018-03-20T06:54:34.387Z,2.14
2018-03-20T06:57:02.129Z,2.86
2018-03-20T06:59:30.052Z,2.46
2018-03-20T07:01:57.695Z,2.31
2018-03-20T07:04:25.418Z,2.66
2018-03-20T07:06:52.880Z,2.52
2018-03-20T07:09:20.354Z,2.37
2018-03-20T07:11:48.127Z,2.88
2018-03-20T07:14:15.594Z,3.04
2018-03-20T07:16:43.062Z,2.98
2018-03-20T07:19:10.788Z,2.53
2018-03-20T07:21:38.626Z,3.18
2018-03-20T07:24:06.093Z,3.07
2018-03-20T07:26:33.968Z,3.08
2018-03-20T07:29:01.427Z,3.06
2018-03-20T07:31:28.886Z,3.01
2018-03-20T07:33:57.092Z,2.70
2018-03-20T07:36:24.548Z,3.28
2018-03-20T07:38:52.025Z,2.83
2018-03-20T07:41:19.847Z,3.02
2018-03-20T07:43:47.316Z,3.31
2018-03-20T07:46:14.769Z,3.30
2018-03-20T07:48:42.770Z,3.69
2018-03-20T07:51:10.237Z,3.56
2018-03-20T07:53:37.702Z,3.14
2018-03-20T07:56:05.451Z,3.75
2018-03-20T07:58:32.940Z,3.49
2018-03-20T08:01:00.395Z,3.62
2018-03-20T08:03:28.452Z,3.86
2018-03-20T08:05:55.942Z,3.04
2018-03-20T08:08:23.403Z,3.70
2018-03-20T08:10:51.143Z,3.20
2018-03-20T08:13:18.609Z,3.83
2018-03-20T08:15:46.072Z,3.99
2018-03-20T08:18:14.131Z,3.64
2018-03-20T08:20:41.593Z,3.30
2018-03-20T08:23:09.744Z,3.52
2018-03-20T08:25:37.729Z,3.89
2018-03-20T08:28:05.185Z,3.78
2018-03-20T08:30:32.649Z,4.09
2018-03-20T08:33:00.420Z,3.78
2018-03-20T08:35:27.882Z,3.73
2018-03-20T08:37:55.358Z,3.93
2018-03-20T08:40:23.429Z,3.64
2018-03-20T08:42:50.886Z,3.88
2018-03-20T08:45:18.334Z,3.98
2018-03-20T08:47:45.988Z,3.81
2018-03-20T08:50:13.454Z,3.96
2018-03-20T08:52:40.910Z,4.23
2018-03-20T08:55:08.793Z,3.64
2018-03-20T08:57:36.250Z,3.35
2018-03-20T09:00:03.710Z,3.55
2018-03-20T09:02:31.785Z,3.83
2018-03-20T09:04:59.256Z,3.48
2018-03-20T09:07:26.721Z,4.22
2018-03-20T09:09:54.901Z,4.19
2018-03-20T09:12:22.429Z,4.58
2018-03-20T09:14:49.833Z,4.20
2018-03-20T09:17:17.467Z,4.39
2018-03-20T09:19:45.237Z,3.47
2018-03-20T09:22:12.696Z,3.53
2018-03-20T09:24:41.073Z,3.92
2018-03-20T09:27:08.549Z,4.02
2018-03-20T09:29:36.045Z,3.96
2018-03-20T09:32:03.637Z,4.14
2018-03-20T09:34:31.100Z,3.83
2018-03-20T09:36:58.561Z,3.72
2018-03-20T09:39:26.452Z,4.18
2018-03-20T09:41:53.985Z,4.36
2018-03-20T09:44:21.441Z,4.58
2018-03-20T09:46:49.449Z,4.73
2018-03-20T09:49:16.896Z,4.50
2018-03-20T09:51:44.354Z,4.30
2018-03-20T09:54:12.161Z,4.25
2018-03-20T09:56:39.626Z,4.34
2018-03-20T09:59:07.092Z,4.36
2018-03-20T10:01:34.826Z,4.34
2018-03-20T10:04:02.281Z,4.48
2018-03-20T10:06:29.740Z,4.77
2018-03-20T10:08:57.514Z,4.43
2018-03-20T10:11:24.982Z,4.64
2018-03-20T10:13:52.433Z,4.75
2018-03-20T10:16:20.186Z,5.00
2018-03-20T10:18:47.659Z,4.70
2018-03-20T10:21:15.121Z,5.47
2018-03-20T10:23:42.877Z,4.58
2018-03-20T10:26:10.449Z,4.70
2018-03-20T10:28:37.906Z,4.94
2018-03-20T10:31:05.869Z,4.89
2018-03-20T10:33:33.331Z,4.94
2018-03-20T10:36:00.799Z,4.71
2018-03-20T10:38:28.561Z,5.58
2018-03-20T10:40:56.038Z,5.86
2018-03-20T10:43:23.490Z,5.14
2018-03-20T10:45:51.262Z,5.72
2018-03-20T10:48:18.731Z,5.27
2018-03-20T10:50:46.188Z,5.65
2018-03-20T10:53:14.243Z,5.97
2018-03-20T10:55:41.694Z,6.45
2018-03-20T10:58:09.153Z,6.42
2018-03-20T11:00:38.784Z,6.97
2018-03-20T11:03:08.186Z,6.37
2018-03-20T11:05:35.641Z,5.88
2018-03-20T11:08:03.368Z,5.52
2018-03-20T11:10:30.907Z,6.35
2018-03-20T11:12:58.322Z,6.71
2018-03-20T11:15:25.992Z,6.16
2018-03-20T11:17:53.451Z,6.22
2018-03-20T11:20:20.911Z,9.07
2018-03-20T11:22:48.682Z,8.94
2018-03-20T11:25:16.148Z,8.75
2018-03-20T11:27:44.288Z,7.81
2018-03-20T11:30:11.990Z,8.36
2018-03-20T11:32:39.462Z,7.74
2018-03-20T11:35:06.972Z,8.79
2018-03-20T11:37:34.672Z,8.13
2018-03-20T11:40:02.137Z,7.76
2018-03-20T11:42:29.589Z,6.86
2018-03-20T11:44:57.355Z,8.48
2018-03-20T11:47:24.819Z,8.33
2018-03-20T11:49:52.277Z,9.16
2018-03-20T11:52:20.035Z,8.78
2018-03-20T11:54:47.498Z,9.55
2018-03-20T11:57:14.969Z,8.99
2018-03-20T11:59:43.030Z,9.46
2018-03-20T12:02:10.537Z,9.16
2018-03-20T12:04:38.039Z,10.11
2018-03-20T12:07:05.767Z,10.37
2018-03-20T12:09:50.823Z,10.11
2018-03-20T12:12:18.453Z,9.73
2018-03-20T12:14:45.913Z,9.85
2018-03-20T12:17:13.369Z,9.38
2018-03-20T12:19:41.152Z,10.30
2018-03-20T12:22:08.610Z,10.57
2018-03-20T12:24:36.076Z,10.05
2018-03-20T12:27:03.862Z,9.64
2018-03-20T12:29:31.992Z,9.61
2018-03-20T12:31:59.460Z,10.25
2018-03-20T12:34:27.452Z,9.77
2018-03-20T12:36:54.928Z,10.23
2018-03-20T12:39:22.386Z,9.92
2018-03-20T12:41:50.133Z,10.30
2018-03-20T12:44:17.608Z,10.18
2018-03-20T12:46:45.113Z,9.60
2018-03-20T12:49:12.824Z,8.42
2018-03-20T12:51:40.278Z,8.24
2018-03-20T12:54:07.740Z,8.12
2018-03-20T12:56:35.504Z,8.24
2018-03-20T12:59:02.966Z,7.92
2018-03-20T13:01:30.521Z,7.59
2018-03-20T13:03:58.185Z,8.02
2018-03-20T13:06:25.646Z,7.86
2018-03-20T13:08:53.116Z,8.40
2018-03-20T13:11:20.874Z,8.60
2018-03-20T13:13:48.338Z,8.89
2018-03-20T13:16:15.803Z,8.76
2018-03-20T13:18:43.897Z,8.41
2018-03-20T13:21:12.293Z,8.77
2018-03-20T13:23:39.762Z,8.81
2018-03-20T13:26:07.485Z,9.95
2018-03-20T13:28:34.942Z,9.99
2018-03-20T13:31:02.784Z,8.77
2018-03-20T13:33:31.090Z,8.99
2018-03-20T13:35:58.549Z,9.75
2018-03-20T13:38:26.022Z,10.27
2018-03-20T13:40:53.822Z,9.09
2018-03-20T13:43:21.292Z,10.54
2018-03-20T13:45:48.749Z,9.70
2018-03-20T13:48:16.467Z,9.48
2018-03-20T13:50:43.929Z,9.38
2018-03-20T13:56:06.057Z,8.46
2018-03-20T13:58:33.956Z,8.37
2018-03-20T14:01:01.479Z,8.16
2018-03-20T14:03:28.941Z,7.33
2018-03-20T14:05:56.673Z,8.08
2018-03-20T14:08:24.121Z,7.71
2018-03-20T14:10:51.587Z,7.86
2018-03-20T14:13:19.565Z,8.64
2018-03-20T14:15:47.038Z,8.60
2018-03-20T14:18:14.506Z,8.96
2018-03-20T14:20:42.357Z,8.71
2018-03-20T14:23:09.800Z,7.78
2018-03-20T14:25:37.249Z,7.65
2018-03-20T14:28:05.024Z,7.81
2018-03-20T14:30:32.484Z,8.08
2018-03-20T14:33:00.380Z,7.92
2018-03-20T14:35:28.316Z,8.49
2018-03-20T14:37:55.772Z,7.91
2018-03-20T14:40:23.229Z,7.91
2018-03-20T14:42:51.002Z,8.49
2018-03-20T14:45:18.457Z,8.41
2018-03-20T14:47:45.917Z,7.63
2018-03-20T14:50:13.986Z,7.90
2018-03-20T14:52:41.445Z,7.54
2018-03-20T14:55:08.904Z,7.72
2018-03-20T14:57:36.674Z,7.95
2018-03-20T15:00:04.176Z,9.09
2018-03-20T15:02:31.615Z,8.22
2018-03-20T15:04:59.667Z,8.51
2018-03-20T15:07:27.122Z,8.09
2018-03-20T15:09:54.581Z,8.46
2018-03-20T15:12:22.445Z,8.24
2018-03-20T15:14:49.876Z,8.81
2018-03-20T15:17:17.353Z,7.92
2018-03-20T15:19:45.400Z,7.99
2018-03-20T15:22:12.846Z,7.86
2018-03-20T15:24:40.326Z,8.18
2018-03-20T15:27:08.340Z,8.41
2018-03-20T15:29:35.896Z,9.34
2018-03-20T15:32:03.363Z,8.63
2018-03-20T15:34:32.268Z,8.52
2018-03-20T15:36:59.778Z,8.65
2018-03-20T15:39:27.215Z,8.04
2018-03-20T15:41:54.962Z,7.36
2018-03-20T15:44:22.428Z,7.88
2018-03-20T15:46:49.886Z,9.12
2018-03-20T15:49:17.661Z,8.63
2018-03-20T15:51:45.121Z,8.61
2018-03-20T15:54:12.585Z,8.02
2018-03-20T15:56:40.376Z,7.87
2018-03-20T15:59:07.832Z,7.94
2018-03-20T16:01:35.303Z,7.37
2018-03-20T16:04:03.319Z,8.14
2018-03-20T16:06:30.798Z,7.89
2018-03-20T16:08:58.267Z,7.63
2018-03-20T16:11:26.025Z,7.63
2018-03-20T16:13:53.496Z,7.67
2018-03-20T16:16:21.000Z,7.55
2018-03-20T16:18:48.700Z,7.29
2018-03-20T16:21:16.206Z,7.05
2018-03-20T16:23:43.947Z,7.62
2018-03-20T16:26:11.708Z,7.27
2018-03-20T16:28:39.176Z,7.55
2018-03-20T16:31:06.632Z,7.89
2018-03-20T16:33:34.394Z,7.65
2018-03-20T16:36:02.210Z,7.63
2018-03-20T16:38:29.677Z,7.36
2018-03-20T16:40:57.415Z,7.34
2018-03-20T16:43:24.850Z,7.31
2018-03-20T16:45:52.340Z,7.48
2018-03-20T16:48:20.017Z,7.07
2018-03-20T16:50:47.477Z,7.11
2018-03-20T16:53:14.941Z,7.28
2018-03-20T16:55:42.746Z,7.11
2018-03-20T16:58:10.292Z,7.20
2018-03-20T17:00:37.750Z,6.93
2018-03-20T17:03:05.513Z,6.68
2018-03-20T17:05:32.970Z,6.48
2018-03-20T17:08:00.423Z,6.58
2018-03-20T17:10:28.121Z,6.50
2018-03-20T17:12:55.623Z,6.88
2018-03-20T17:15:23.089Z,6.92
2018-03-20T17:17:50.802Z,6.61
2018-03-20T17:20:18.265Z,6.20
2018-03-20T17:22:45.793Z,6.88
2018-03-20T17:25:13.499Z,6.81
2018-03-20T17:27:40.965Z,6.64
2018-03-20T17:30:08.419Z,6.72
2018-03-20T17:32:36.186Z,6.20
2018-03-20T17:35:03.662Z,6.26
2018-03-20T17:37:31.490Z,6.19
2018-03-20T17:39:59.183Z,5.96
2018-03-20T17:42:26.638Z,5.90
2018-03-20T17:44:54.093Z,6.45
2018-03-20T17:47:21.861Z,6.46
2018-03-20T17:49:49.322Z,6.36
2018-03-20T17:52:16.784Z,6.02
2018-03-20T17:54:44.494Z,6.03
2018-03-20T17:57:11.966Z,6.33
2018-03-20T17:59:39.422Z,5.80
2018-03-20T18:02:07.237Z,6.34
2018-03-20T18:04:34.706Z,6.35
2018-03-20T18:07:02.177Z,6.28
2018-03-20T18:09:30.233Z,5.95
2018-03-20T18:11:57.702Z,5.55
2018-03-20T18:14:25.158Z,5.44
2018-03-20T18:16:52.934Z,5.55
2018-03-20T18:19:20.390Z,5.40
2018-03-20T18:21:47.845Z,5.79
2018-03-20T18:24:15.604Z,5.84
2018-03-20T18:26:43.064Z,5.70
2018-03-20T18:29:10.566Z,5.64
2018-03-20T18:31:38.284Z,5.60
2018-03-20T18:34:05.738Z,6.33
2018-03-20T18:36:33.198Z,5.67
2018-03-20T18:39:02.522Z,5.80
2018-03-20T18:41:29.972Z,5.60
2018-03-20T18:43:57.429Z,5.26
2018-03-20T18:46:25.201Z,5.54
2018-03-20T18:48:52.661Z,5.95
2018-03-20T18:51:20.129Z,6.01
2018-03-20T18:53:47.858Z,5.68
2018-03-20T18:56:15.306Z,6.07
2018-03-20T18:58:42.757Z,5.67
2018-03-20T19:01:10.715Z,6.31
2018-03-20T19:03:38.177Z,6.00
2018-03-20T19:06:05.637Z,5.82
2018-03-20T19:08:33.582Z,5.88
2018-03-20T19:11:01.035Z,6.09
2018-03-20T19:13:28.494Z,5.89
2018-03-20T19:15:56.877Z,6.52
2018-03-20T19:18:24.337Z,7.20
2018-03-20T19:20:51.796Z,6.07
2018-03-20T19:23:19.855Z,6.52
2018-03-20T19:25:47.312Z,6.91
2018-03-20T19:28:14.766Z,6.51
2018-03-20T19:30:42.525Z,6.38
2018-03-20T19:33:09.976Z,6.43
2018-03-20T19:35:37.425Z,6.40
2018-03-20T19:38:05.226Z,5.08
2018-03-20T19:40:32.901Z,5.46
2018-03-20T19:43:00.361Z,4.94
2018-03-20T19:45:28.271Z,4.81
2018-03-20T19:47:55.736Z,5.42
2018-03-20T19:50:23.200Z,5.16
2018-03-20T19:52:50.905Z,5.21
2018-03-20T19:55:18.351Z,5.13
2018-03-20T19:57:46.196Z,4.90
2018-03-20T20:00:14.371Z,4.81
2018-03-20T20:02:42.162Z,5.41
2018-03-20T20:05:10.137Z,5.18
2018-03-20T20:07:38.137Z,5.25
2018-03-20T20:10:05.778Z,5.21
2018-03-20T20:12:33.658Z,5.07
2018-03-20T20:15:01.742Z,5.21
2018-03-20T20:17:29.605Z,5.00
2018-03-20T20:19:57.326Z,5.43
2018-03-20T20:22:25.724Z,5.26
2018-03-20T20:24:53.248Z,5.00
2018-03-20T20:27:20.745Z,4.87
2018-03-20T20:29:48.968Z,4.91
2018-03-20T20:32:16.424Z,5.08
2018-03-20T20:34:43.916Z,5.05
2018-03-20T20:37:11.797Z,4.78
2018-03-20T20:39:39.344Z,4.98
2018-03-20T20:42:08.483Z,5.35
2018-03-20T20:44:36.494Z,4.85
2018-03-20T20:47:03.948Z,4.69
2018-03-20T20:49:31.946Z,4.59
2018-03-20T20:52:00.452Z,4.97
2018-03-20T20:54:27.917Z,5.36
2018-03-20T20:56:55.745Z,5.59
2018-03-20T20:59:24.011Z,4.99
2018-03-20T21:01:51.823Z,4.96
2018-03-20T21:04:19.317Z,5.89
2018-03-20T21:06:47.023Z,5.37
2018-03-20T21:09:14.504Z,5.04
2018-03-20T21:11:41.957Z,5.04
2018-03-20T21:14:09.694Z,5.58
2018-03-20T21:16:37.160Z,5.55
2018-03-20T21:19:04.662Z,5.79
2018-03-20T21:21:32.407Z,4.47
2018-03-20T21:23:59.875Z,4.57
2018-03-20T21:26:27.335Z,4.71
2018-03-20T21:28:55.049Z,4.76
2018-03-20T21:31:22.513Z,4.45
2018-03-20T21:33:49.997Z,4.40
2018-03-20T21:36:18.059Z,4.65
2018-03-20T21:38:45.528Z,4.91
2018-03-20T21:41:13.039Z,4.46
2018-03-20T21:43:41.325Z,4.45
2018-03-20T21:46:08.771Z,4.79
2018-03-20T21:48:36.298Z,4.56
2018-03-20T21:51:04.064Z,4.45
2018-03-20T21:53:31.611Z,5.69
2018-03-20T21:55:59.140Z,5.24
2018-03-20T21:58:26.849Z,5.86
2018-03-20T22:00:54.309Z,5.78
2018-03-20T22:03:21.761Z,5.37
2018-03-20T22:05:49.740Z,4.75
2018-03-20T22:08:17.212Z,4.10
2018-03-20T22:10:44.695Z,5.03
2018-03-20T22:13:12.755Z,4.98
2018-03-20T22:15:40.260Z,4.98
2018-03-20T22:18:08.186Z,4.52
2018-03-20T22:20:36.060Z,4.67
2018-03-20T22:23:03.516Z,4.37
2018-03-20T22:25:30.999Z,5.04
2018-03-20T22:27:58.767Z,5.18
2018-03-20T22:30:26.243Z,5.66
2018-03-20T22:32:53.689Z,5.34
2018-03-20T22:35:21.722Z,5.55
2018-03-20T22:37:49.184Z,6.29
2018-03-20T22:40:16.644Z,5.67
2018-03-20T22:42:44.303Z,4.98
2018-03-20T22:45:13.454Z,5.18
2018-03-20T22:47:40.921Z,5.31
2018-03-20T22:50:08.891Z,5.30
2018-03-20T22:52:36.361Z,4.95
2018-03-20T22:55:03.820Z,5.24
2018-03-20T22:57:31.920Z,4.92
2018-03-20T22:59:59.374Z,5.44
2018-03-20T23:02:26.829Z,5.11
2018-03-20T23:04:54.621Z,5.35
2018-03-20T23:07:22.093Z,5.16
2018-03-20T23:09:49.557Z,5.54
2018-03-20T23:12:17.297Z,5.49
2018-03-20T23:14:44.762Z,5.49
2018-03-20T23:17:12.212Z,4.68
2018-03-20T23:19:39.985Z,5.11
2018-03-20T23:22:07.486Z,4.89
2018-03-20T23:24:34.989Z,4.69
2018-03-20T23:27:02.989Z,4.73
2018-03-20T23:29:30.754Z,4.99
2018-03-20T23:31:58.210Z,5.43
2018-03-20T23:34:25.999Z,5.15
2018-03-20T23:36:53.453Z,5.57
2018-03-20T23:39:20.917Z,4.92
2018-03-20T23:41:48.669Z,5.19
2018-03-20T23:44:16.137Z,5.10
2018-03-20T23:46:44.272Z,4.95
2018-03-20T23:49:12.261Z,4.86
2018-03-20T23:51:39.732Z,4.93
2018-03-20T23:54:07.199Z,5.11
2018-03-20T23:56:34.954Z,5.05
2018-03-20T23:59:02.405Z,5.54
